Guillaume Morel

Olheiro - Nimes
8 Jan 2028
Sábado
Processo

Personalidade

Adaptabilidade (8) Ambição (2) Controvérsia (8) Lealdade (12) Pressão (2) Profissionalismo (2) Espírito Esportivo (4) Temperamento (3)

Perfil

Estilo de Treinamento Democrático
Licença Continental B
Determinação 8
Gestão de Pessoas 6
Motivação 10
Disciplina 4
Satisfação no Trabalho
100%
Fadiga
0%
Função Olheiro
Salário 35.4K p/s
Contrato 14.03.2030

Desempenho

Comportamento Bom
Eficácia do Treinamento
44%
Desenvolvimento do Jogador
20%
Prevenção de Lesões
40%
Implementação Tática
40%

Eventos Recentes

Participou de uma reunião de recrutamento agora
Participou de uma reunião de recrutamento 7d atrás
Participou de uma reunião de recrutamento 7d atrás
Participou de uma reunião de recrutamento 14d atrás
Participou de uma reunião de recrutamento 14d atrás
Observou uma partida 14d atrás
Participou de uma reunião de recrutamento 21d atrás
Observou uma partida 21d atrás

Monitorando agora

55
Jogador Clube Status Habilidade Confiança Observado Última observação Último voto
Noah Gomes Sochaux Ativo 96 / 104 72% 1 01.01.2028 Aprovar
Bosun Lawal Stoke City Ativo 123 / 120 40% 1 31.05.2027 -
Gustavo Hamer Sheffield United Ativo 140 / 140 40% 1 31.05.2027 -
Lewis Gibson Preston Ativo 133 / 120 40% 1 31.05.2027 -
Cameron Archer Southampton Ativo 134 / 118 40% 1 30.05.2027 -
Casper Tengstedt Toulouse FC Ativo 127 / 135 40% 1 28.05.2027 -
Mohamed Bamba FC Lorient Ativo 125 / 133 40% 1 28.05.2027 -
Tommy Conway Middlesbrough Ativo 127 / 127 40% 2 27.05.2027 -
Aidomo Emakhu Oxford United Ativo 126 / 116 40% 1 27.05.2027 -
Mathias Jørgensen Blackburn Rovers Ativo 115 / 130 40% 1 27.05.2027 -
Oumar Camara Vitoria Guimaraes Ativo 118 / 114 40% 3 24.05.2027 -
Yanis Begraoui Estoril Praia Ativo 138 / 142 40% 6 22.05.2027 -
Jakob Napoleon Romsaas Charleroi Ativo 112 / 134 40% 1 22.05.2027 -
Lamine Cissé Peterborough United Ativo 125 / 112 40% 2 21.05.2027 -
Stephen Amankona Aduana Stars Ativo 92 / 85 40% 2 21.05.2027 -
Yousef Salech Cardiff City Ativo 132 / 133 40% 2 17.05.2027 -
Marezi Portsmouth Ativo 117 / 116 40% 1 17.05.2027 -
Joe Gelhardt Hull City Ativo 140 / 126 40% 1 17.05.2027 -
Patrick Agyemang Derby County Ativo 127 / 128 40% 2 15.05.2027 -
Mattia Felici Cagliari Ativo 134 / 138 40% 1 15.05.2027 -
Dale Taylor Blackpool Ativo 108 / 117 40% 2 10.05.2027 -
Danny Namaso AJ Auxerre Ativo 126 / 123 40% 1 10.05.2027 -
Rumarn Burrell Queens Park Rangers Ativo 125 / 130 40% 1 07.05.2027 -
Pau Víctor Estrela da Amadora Ativo 144 / 149 40% 1 03.05.2027 -
Willem Geubbels Lecce Ativo 136 / 134 40% 1 03.05.2027 -
Luca Koleosho Paris FC Ativo 135 / 138 40% 3 02.05.2027 -
Siaka Diaby Stade Malien Ativo 101 / 109 40% 2 02.05.2027 -
Fabrizio Cavegn Bristol Rovers Ativo 118 / 106 40% 1 02.05.2027 -
Lorent Tolaj Plymouth Argyle Ativo 118 / 117 40% 1 01.05.2027 -
Jovon Makama Norwich City Ativo 129 / 129 40% 1 29.04.2027 -
Tyrese Campbell Sheffield United Ativo 120 / 128 40% 4 23.04.2027 -
Etiosa Ighodaro Kaizer Chiefs Ativo 107 / 129 40% 1 23.04.2027 -
Richard Koné Queens Park Rangers Ativo 120 / 124 40% 3 21.04.2027 -
Sidiki Chérif Coventry City Ativo 121 / 127 40% 1 21.04.2027 -
Rafiu Durosinmi Racing Genk Ativo 134 / 119 40% 2 18.04.2027 -
John Yeboah Venezia Ativo 128 / 111 40% 1 18.04.2027 -
Demba Seck Partizan Ativo 117 / 123 40% 1 17.04.2027 -
Ryotaro Araki Sint-Truiden Ativo 112 / 113 40% 1 17.04.2027 -
Konan N'Dri Lecce Ativo 124 / 132 40% 3 15.04.2027 -
Jules Armand Kooh Dynamo Douala Ativo 99 / 105 40% 2 15.04.2027 -
Kahiser Lenis Feirense Ativo 115 / 113 40% 1 15.04.2027 -
Josh Coburn Millwall Ativo 112 / 116 40% 1 13.04.2027 -
Bertuğ Yıldırım Basaksehir Ativo 134 / 102 40% 1 31.03.2027 -
Bradley Fink Wycombe Wanderers Ativo 100 / 100 40% 1 31.03.2027 -
Sambou Soumano FC Lorient Ativo 133 / 135 40% 1 18.03.2027 -
Aune Heggebø West Bromwich Albion Ativo 131 / 126 40% 1 17.03.2027 -
Aaron Connolly Ruch Ativo 128 / 130 40% 1 11.03.2027 -
Camilo Durán Bloemfontein Celtic Ativo 119 / 119 40% 2 07.03.2027 -
Dawda Camara Alverca Ativo 122 / 131 40% 1 06.03.2027 -
Gaël Nsombi US Creteil Ativo 108 / 100 40% 1 25.01.2027 Mais informações
Maximiliano Caufriez KV Kortrijk Ativo 131 / 123 40% 1 31.12.2026 -
Brayann Pereira West Bromwich Albion Ativo 111 / 111 40% 1 31.12.2026 -
Youssef Challouk Standard Liege Ativo 108 / 126 40% 1 10.08.2026 -
Alimami Gory Paris FC Ativo 111 / 128 40% 1 10.08.2026 -
Gady Beyuku Blackburn Rovers Ativo 114 / 107 40% 1 01.08.2026 -